sensor_id;sensor_type;location;lat;lon;timestamp;temperature;humidity
30206;DHT22;17010;51.306;3.150;2023-04-08T00:00:36;8.90;99.90
30206;DHT22;17010;51.306;3.150;2023-04-08T00:03:02;8.90;99.90
30206;DHT22;17010;51.306;3.150;2023-04-08T00:05:29;8.70;99.90
30206;DHT22;17010;51.306;3.150;2023-04-08T00:07:55;8.60;99.90
30206;DHT22;17010;51.306;3.150;2023-04-08T00:10:21;8.60;99.90
30206;DHT22;17010;51.306;3.150;2023-04-08T00:12:47;8.60;99.90
30206;DHT22;17010;51.306;3.150;2023-04-08T00:15:13;8.70;99.90
30206;DHT22;17010;51.306;3.150;2023-04-08T00:17:40;8.80;99.90
30206;DHT22;17010;51.306;3.150;2023-04-08T00:20:06;8.70;99.90
30206;DHT22;17010;51.306;3.150;2023-04-08T00:22:33;8.80;99.90
30206;DHT22;17010;51.306;3.150;2023-04-08T00:25:00;8.80;99.90
30206;DHT22;17010;51.306;3.150;2023-04-08T00:27:27;8.70;99.90
30206;DHT22;17010;51.306;3.150;2023-04-08T00:29:53;8.70;99.90
30206;DHT22;17010;51.306;3.150;2023-04-08T00:32:20;8.70;99.90
30206;DHT22;17010;51.306;3.150;2023-04-08T00:34:46;8.60;99.90
30206;DHT22;17010;51.306;3.150;2023-04-08T00:37:12;8.60;99.90
30206;DHT22;17010;51.306;3.150;2023-04-08T00:39:39;8.50;99.90
30206;DHT22;17010;51.306;3.150;2023-04-08T00:42:05;8.50;99.90
30206;DHT22;17010;51.306;3.150;2023-04-08T00:44:34;8.50;99.90
30206;DHT22;17010;51.306;3.150;2023-04-08T00:47:00;8.50;99.90
30206;DHT22;17010;51.306;3.150;2023-04-08T00:49:29;8.60;99.90
30206;DHT22;17010;51.306;3.150;2023-04-08T00:51:57;8.70;99.90
30206;DHT22;17010;51.306;3.150;2023-04-08T00:54:23;8.70;99.90
30206;DHT22;17010;51.306;3.150;2023-04-08T00:56:50;8.70;99.90
30206;DHT22;17010;51.306;3.150;2023-04-08T00:59:16;8.70;99.90
30206;DHT22;17010;51.306;3.150;2023-04-08T01:01:50;8.60;99.90
30206;DHT22;17010;51.306;3.150;2023-04-08T01:10:11;8.50;99.90
30206;DHT22;17010;51.306;3.150;2023-04-08T01:12:41;8.60;99.90
30206;DHT22;17010;51.306;3.150;2023-04-08T01:15:10;8.60;99.90
30206;DHT22;17010;51.306;3.150;2023-04-08T01:17:37;8.50;99.90
30206;DHT22;17010;51.306;3.150;2023-04-08T01:20:04;8.50;99.90
30206;DHT22;17010;51.306;3.150;2023-04-08T01:25:21;8.60;99.90
30206;DHT22;17010;51.306;3.150;2023-04-08T01:27:48;8.70;99.90
30206;DHT22;17010;51.306;3.150;2023-04-08T01:30:17;8.80;99.90
30206;DHT22;17010;51.306;3.150;2023-04-08T01:32:44;8.70;99.90
30206;DHT22;17010;51.306;3.150;2023-04-08T01:35:11;8.70;99.90
30206;DHT22;17010;51.306;3.150;2023-04-08T01:37:39;8.60;99.90
30206;DHT22;17010;51.306;3.150;2023-04-08T01:40:07;8.70;99.90
30206;DHT22;17010;51.306;3.150;2023-04-08T01:42:34;8.70;99.90
30206;DHT22;17010;51.306;3.150;2023-04-08T01:45:01;8.70;99.90
30206;DHT22;17010;51.306;3.150;2023-04-08T01:47:29;8.70;99.90
30206;DHT22;17010;51.306;3.150;2023-04-08T01:49:55;8.70;99.90
30206;DHT22;17010;51.306;3.150;2023-04-08T01:52:23;8.80;99.90
30206;DHT22;17010;51.306;3.150;2023-04-08T01:54:51;8.80;99.90
30206;DHT22;17010;51.306;3.150;2023-04-08T01:57:27;8.80;99.90
30206;DHT22;17010;51.306;3.150;2023-04-08T01:59:59;8.80;99.90
30206;DHT22;17010;51.306;3.150;2023-04-08T02:02:26;8.90;99.90
30206;DHT22;17010;51.306;3.150;2023-04-08T02:04:54;8.90;99.90
30206;DHT22;17010;51.306;3.150;2023-04-08T02:07:20;8.90;99.90
30206;DHT22;17010;51.306;3.150;2023-04-08T02:09:47;8.90;99.90
30206;DHT22;17010;51.306;3.150;2023-04-08T02:12:13;8.90;99.90
30206;DHT22;17010;51.306;3.150;2023-04-08T02:14:40;8.90;99.90
30206;DHT22;17010;51.306;3.150;2023-04-08T02:17:17;8.90;99.90
30206;DHT22;17010;51.306;3.150;2023-04-08T02:19:47;8.90;99.90
30206;DHT22;17010;51.306;3.150;2023-04-08T02:25:04;8.80;99.90
30206;DHT22;17010;51.306;3.150;2023-04-08T02:27:33;8.70;99.90
30206;DHT22;17010;51.306;3.150;2023-04-08T02:30:02;8.60;99.90
30206;DHT22;17010;51.306;3.150;2023-04-08T02:32:29;8.50;99.90
30206;DHT22;17010;51.306;3.150;2023-04-08T02:34:58;8.60;99.90
30206;DHT22;17010;51.306;3.150;2023-04-08T02:37:27;8.70;99.90
30206;DHT22;17010;51.306;3.150;2023-04-08T02:39:53;8.60;99.90
30206;DHT22;17010;51.306;3.150;2023-04-08T02:42:20;8.60;99.90
30206;DHT22;17010;51.306;3.150;2023-04-08T02:44:46;8.60;99.90
30206;DHT22;17010;51.306;3.150;2023-04-08T02:47:12;8.60;99.90
30206;DHT22;17010;51.306;3.150;2023-04-08T02:49:39;8.70;99.90
30206;DHT22;17010;51.306;3.150;2023-04-08T02:52:05;8.60;99.90
30206;DHT22;17010;51.306;3.150;2023-04-08T02:54:31;8.70;99.90
30206;DHT22;17010;51.306;3.150;2023-04-08T02:56:58;8.70;99.90
30206;DHT22;17010;51.306;3.150;2023-04-08T02:59:24;8.70;99.90
30206;DHT22;17010;51.306;3.150;2023-04-08T03:01:50;8.80;99.90
30206;DHT22;17010;51.306;3.150;2023-04-08T03:04:17;8.90;99.90
30206;DHT22;17010;51.306;3.150;2023-04-08T03:06:43;9.00;99.90
30206;DHT22;17010;51.306;3.150;2023-04-08T03:09:10;9.10;99.90
30206;DHT22;17010;51.306;3.150;2023-04-08T03:11:36;9.10;99.90
30206;DHT22;17010;51.306;3.150;2023-04-08T03:14:02;9.10;99.90
30206;DHT22;17010;51.306;3.150;2023-04-08T03:16:29;9.20;99.90
30206;DHT22;17010;51.306;3.150;2023-04-08T03:18:56;9.20;99.90
30206;DHT22;17010;51.306;3.150;2023-04-08T03:21:22;9.10;99.90
30206;DHT22;17010;51.306;3.150;2023-04-08T03:23:49;9.00;99.90
30206;DHT22;17010;51.306;3.150;2023-04-08T03:26:16;8.90;99.90
30206;DHT22;17010;51.306;3.150;2023-04-08T03:28:42;8.90;99.90
30206;DHT22;17010;51.306;3.150;2023-04-08T03:31:08;8.90;99.90
30206;DHT22;17010;51.306;3.150;2023-04-08T03:33:35;8.80;99.90
30206;DHT22;17010;51.306;3.150;2023-04-08T03:36:01;8.80;99.90
30206;DHT22;17010;51.306;3.150;2023-04-08T03:38:28;8.90;99.90
30206;DHT22;17010;51.306;3.150;2023-04-08T03:40:54;8.90;99.90
30206;DHT22;17010;51.306;3.150;2023-04-08T03:43:21;8.90;99.90
30206;DHT22;17010;51.306;3.150;2023-04-08T03:45:47;9.00;99.90
30206;DHT22;17010;51.306;3.150;2023-04-08T03:48:13;8.90;99.90
30206;DHT22;17010;51.306;3.150;2023-04-08T03:50:40;8.90;99.90
30206;DHT22;17010;51.306;3.150;2023-04-08T03:53:07;8.90;99.90
30206;DHT22;17010;51.306;3.150;2023-04-08T03:55:36;8.90;99.90
30206;DHT22;17010;51.306;3.150;2023-04-08T03:58:02;8.80;99.90
30206;DHT22;17010;51.306;3.150;2023-04-08T04:00:29;8.80;99.90
30206;DHT22;17010;51.306;3.150;2023-04-08T04:02:56;8.80;99.90
30206;DHT22;17010;51.306;3.150;2023-04-08T04:05:23;8.70;99.90
30206;DHT22;17010;51.306;3.150;2023-04-08T04:07:50;8.70;99.90
30206;DHT22;17010;51.306;3.150;2023-04-08T04:10:16;8.80;99.90
30206;DHT22;17010;51.306;3.150;2023-04-08T04:12:43;8.90;99.90
30206;DHT22;17010;51.306;3.150;2023-04-08T04:15:10;8.90;99.90
30206;DHT22;17010;51.306;3.150;2023-04-08T04:17:36;8.90;99.90
30206;DHT22;17010;51.306;3.150;2023-04-08T04:20:04;8.80;99.90
30206;DHT22;17010;51.306;3.150;2023-04-08T04:22:31;8.90;99.90
30206;DHT22;17010;51.306;3.150;2023-04-08T04:24:58;8.90;99.90
30206;DHT22;17010;51.306;3.150;2023-04-08T04:27:24;8.80;99.90
30206;DHT22;17010;51.306;3.150;2023-04-08T04:29:50;8.70;99.90
30206;DHT22;17010;51.306;3.150;2023-04-08T04:32:17;8.70;99.90
30206;DHT22;17010;51.306;3.150;2023-04-08T04:34:44;8.70;99.90
30206;DHT22;17010;51.306;3.150;2023-04-08T04:37:11;8.70;99.90
30206;DHT22;17010;51.306;3.150;2023-04-08T04:39:38;8.80;99.90
30206;DHT22;17010;51.306;3.150;2023-04-08T04:42:05;8.80;99.90
30206;DHT22;17010;51.306;3.150;2023-04-08T04:44:31;8.90;99.90
30206;DHT22;17010;51.306;3.150;2023-04-08T04:46:58;8.90;99.90
30206;DHT22;17010;51.306;3.150;2023-04-08T04:49:24;8.80;99.90
30206;DHT22;17010;51.306;3.150;2023-04-08T04:51:50;8.80;99.90
30206;DHT22;17010;51.306;3.150;2023-04-08T04:54:17;8.90;99.90
30206;DHT22;17010;51.306;3.150;2023-04-08T04:56:43;8.80;99.90
30206;DHT22;17010;51.306;3.150;2023-04-08T04:59:09;8.90;99.90
30206;DHT22;17010;51.306;3.150;2023-04-08T05:01:35;9.00;99.90
30206;DHT22;17010;51.306;3.150;2023-04-08T05:04:02;9.10;99.90
30206;DHT22;17010;51.306;3.150;2023-04-08T05:06:28;9.10;99.90
30206;DHT22;17010;51.306;3.150;2023-04-08T05:08:54;9.10;99.90
30206;DHT22;17010;51.306;3.150;2023-04-08T05:11:20;9.20;99.90
30206;DHT22;17010;51.306;3.150;2023-04-08T05:13:47;9.30;99.90
30206;DHT22;17010;51.306;3.150;2023-04-08T05:16:13;9.20;99.90
30206;DHT22;17010;51.306;3.150;2023-04-08T05:18:39;9.20;99.90
30206;DHT22;17010;51.306;3.150;2023-04-08T05:21:06;9.30;99.90
30206;DHT22;17010;51.306;3.150;2023-04-08T05:23:33;9.30;99.90
30206;DHT22;17010;51.306;3.150;2023-04-08T05:26:00;9.30;99.90
30206;DHT22;17010;51.306;3.150;2023-04-08T05:28:26;9.30;99.90
30206;DHT22;17010;51.306;3.150;2023-04-08T05:30:52;9.30;99.90
30206;DHT22;17010;51.306;3.150;2023-04-08T05:33:19;9.20;99.90
30206;DHT22;17010;51.306;3.150;2023-04-08T05:35:45;9.20;99.90
30206;DHT22;17010;51.306;3.150;2023-04-08T05:38:12;9.20;99.90
30206;DHT22;17010;51.306;3.150;2023-04-08T05:40:41;9.20;99.90
30206;DHT22;17010;51.306;3.150;2023-04-08T05:43:07;9.30;99.90
30206;DHT22;17010;51.306;3.150;2023-04-08T05:45:33;9.40;99.90
30206;DHT22;17010;51.306;3.150;2023-04-08T05:47:59;9.50;99.90
30206;DHT22;17010;51.306;3.150;2023-04-08T05:50:26;9.50;99.90
30206;DHT22;17010;51.306;3.150;2023-04-08T05:52:52;9.50;99.90
30206;DHT22;17010;51.306;3.150;2023-04-08T05:55:18;9.50;99.90
30206;DHT22;17010;51.306;3.150;2023-04-08T05:57:45;9.60;99.90
30206;DHT22;17010;51.306;3.150;2023-04-08T06:00:12;9.70;99.90
30206;DHT22;17010;51.306;3.150;2023-04-08T06:02:38;9.80;99.90
30206;DHT22;17010;51.306;3.150;2023-04-08T06:05:05;9.80;99.90
30206;DHT22;17010;51.306;3.150;2023-04-08T06:07:31;9.80;99.90
30206;DHT22;17010;51.306;3.150;2023-04-08T06:09:58;9.70;99.90
30206;DHT22;17010;51.306;3.150;2023-04-08T06:12:27;9.80;99.90
30206;DHT22;17010;51.306;3.150;2023-04-08T06:14:56;9.80;99.90
30206;DHT22;17010;51.306;3.150;2023-04-08T06:17:22;9.80;99.90
30206;DHT22;17010;51.306;3.150;2023-04-08T06:19:49;9.80;99.90
30206;DHT22;17010;51.306;3.150;2023-04-08T06:22:15;9.80;99.90
30206;DHT22;17010;51.306;3.150;2023-04-08T06:24:42;9.80;99.90
30206;DHT22;17010;51.306;3.150;2023-04-08T06:27:08;9.90;99.90
30206;DHT22;17010;51.306;3.150;2023-04-08T06:29:35;9.90;99.90
30206;DHT22;17010;51.306;3.150;2023-04-08T06:32:02;9.80;99.90
30206;DHT22;17010;51.306;3.150;2023-04-08T06:34:28;9.80;99.90
30206;DHT22;17010;51.306;3.150;2023-04-08T06:36:54;9.80;99.90
30206;DHT22;17010;51.306;3.150;2023-04-08T06:39:21;9.90;99.90
30206;DHT22;17010;51.306;3.150;2023-04-08T06:41:48;10.00;99.90
30206;DHT22;17010;51.306;3.150;2023-04-08T06:44:14;10.10;99.90
30206;DHT22;17010;51.306;3.150;2023-04-08T06:46:40;10.20;99.90
30206;DHT22;17010;51.306;3.150;2023-04-08T06:49:07;10.30;99.90
30206;DHT22;17010;51.306;3.150;2023-04-08T06:51:33;10.40;99.90
30206;DHT22;17010;51.306;3.150;2023-04-08T06:54:00;10.50;99.90
30206;DHT22;17010;51.306;3.150;2023-04-08T06:56:26;10.50;99.90
30206;DHT22;17010;51.306;3.150;2023-04-08T06:58:52;10.60;99.90
30206;DHT22;17010;51.306;3.150;2023-04-08T07:01:19;10.50;99.90
30206;DHT22;17010;51.306;3.150;2023-04-08T07:03:45;10.60;99.90
30206;DHT22;17010;51.306;3.150;2023-04-08T07:06:12;10.70;99.90
30206;DHT22;17010;51.306;3.150;2023-04-08T07:08:38;10.70;99.90
30206;DHT22;17010;51.306;3.150;2023-04-08T07:11:08;10.70;99.90
30206;DHT22;17010;51.306;3.150;2023-04-08T07:13:34;10.80;99.90
30206;DHT22;17010;51.306;3.150;2023-04-08T07:16:01;10.90;99.90
30206;DHT22;17010;51.306;3.150;2023-04-08T07:18:27;10.90;99.90
30206;DHT22;17010;51.306;3.150;2023-04-08T07:20:53;11.00;99.90
30206;DHT22;17010;51.306;3.150;2023-04-08T07:23:20;10.80;99.90
30206;DHT22;17010;51.306;3.150;2023-04-08T07:25:47;10.70;99.90
30206;DHT22;17010;51.306;3.150;2023-04-08T07:28:13;10.70;99.90
30206;DHT22;17010;51.306;3.150;2023-04-08T07:30:40;10.70;99.90
30206;DHT22;17010;51.306;3.150;2023-04-08T07:33:06;10.80;99.90
30206;DHT22;17010;51.306;3.150;2023-04-08T07:35:33;10.50;99.90
30206;DHT22;17010;51.306;3.150;2023-04-08T07:37:59;10.30;99.90
30206;DHT22;17010;51.306;3.150;2023-04-08T07:40:26;10.20;99.90
30206;DHT22;17010;51.306;3.150;2023-04-08T07:42:52;10.30;99.90
30206;DHT22;17010;51.306;3.150;2023-04-08T07:45:19;10.30;99.90
30206;DHT22;17010;51.306;3.150;2023-04-08T07:47:45;10.30;99.90
30206;DHT22;17010;51.306;3.150;2023-04-08T07:50:12;10.40;99.90
30206;DHT22;17010;51.306;3.150;2023-04-08T07:52:45;10.60;99.90
30206;DHT22;17010;51.306;3.150;2023-04-08T07:55:12;10.70;99.90
30206;DHT22;17010;51.306;3.150;2023-04-08T07:57:38;10.50;99.90
30206;DHT22;17010;51.306;3.150;2023-04-08T08:00:06;10.60;99.90
30206;DHT22;17010;51.306;3.150;2023-04-08T08:02:33;10.60;99.90
30206;DHT22;17010;51.306;3.150;2023-04-08T08:05:00;10.70;99.90
30206;DHT22;17010;51.306;3.150;2023-04-08T08:07:28;10.70;99.90
30206;DHT22;17010;51.306;3.150;2023-04-08T08:09:54;10.70;99.90
30206;DHT22;17010;51.306;3.150;2023-04-08T08:12:21;10.50;99.90
30206;DHT22;17010;51.306;3.150;2023-04-08T08:14:47;10.60;99.90
30206;DHT22;17010;51.306;3.150;2023-04-08T08:17:14;10.60;99.90
30206;DHT22;17010;51.306;3.150;2023-04-08T08:19:40;10.50;99.90
30206;DHT22;17010;51.306;3.150;2023-04-08T08:22:10;10.40;99.90
30206;DHT22;17010;51.306;3.150;2023-04-08T08:24:37;10.40;99.90
30206;DHT22;17010;51.306;3.150;2023-04-08T08:27:03;10.30;99.90
30206;DHT22;17010;51.306;3.150;2023-04-08T08:29:31;10.30;99.90
30206;DHT22;17010;51.306;3.150;2023-04-08T08:31:58;10.30;99.90
30206;DHT22;17010;51.306;3.150;2023-04-08T08:34:25;10.30;99.90
30206;DHT22;17010;51.306;3.150;2023-04-08T08:36:52;10.30;99.90
30206;DHT22;17010;51.306;3.150;2023-04-08T08:39:18;10.20;99.90
30206;DHT22;17010;51.306;3.150;2023-04-08T08:41:47;10.20;99.90
30206;DHT22;17010;51.306;3.150;2023-04-08T08:44:14;10.10;99.90
30206;DHT22;17010;51.306;3.150;2023-04-08T08:46:44;10.00;99.90
30206;DHT22;17010;51.306;3.150;2023-04-08T08:49:14;10.20;99.90
30206;DHT22;17010;51.306;3.150;2023-04-08T08:51:41;10.20;99.90
30206;DHT22;17010;51.306;3.150;2023-04-08T08:54:10;10.40;99.90
30206;DHT22;17010;51.306;3.150;2023-04-08T08:56:36;10.80;99.90
30206;DHT22;17010;51.306;3.150;2023-04-08T08:59:03;11.80;99.90
30206;DHT22;17010;51.306;3.150;2023-04-08T09:01:35;12.90;99.90
30206;DHT22;17010;51.306;3.150;2023-04-08T09:04:16;13.70;99.90
30206;DHT22;17010;51.306;3.150;2023-04-08T09:07:09;14.70;99.90
30206;DHT22;17010;51.306;3.150;2023-04-08T09:09:48;15.40;99.90
30206;DHT22;17010;51.306;3.150;2023-04-08T09:12:15;15.90;99.90
30206;DHT22;17010;51.306;3.150;2023-04-08T09:14:41;15.90;99.90
30206;DHT22;17010;51.306;3.150;2023-04-08T09:17:08;15.90;99.90
30206;DHT22;17010;51.306;3.150;2023-04-08T09:19:35;16.20;99.90
30206;DHT22;17010;51.306;3.150;2023-04-08T09:22:08;15.90;99.90
30206;DHT22;17010;51.306;3.150;2023-04-08T09:24:36;15.80;99.90
30206;DHT22;17010;51.306;3.150;2023-04-08T09:27:05;15.30;99.90
30206;DHT22;17010;51.306;3.150;2023-04-08T09:29:32;14.80;99.90
30206;DHT22;17010;51.306;3.150;2023-04-08T09:32:00;14.50;99.90
30206;DHT22;17010;51.306;3.150;2023-04-08T09:34:28;14.30;99.90
30206;DHT22;17010;51.306;3.150;2023-04-08T09:36:55;13.80;99.90
30206;DHT22;17010;51.306;3.150;2023-04-08T09:39:21;13.30;99.90
30206;DHT22;17010;51.306;3.150;2023-04-08T09:41:49;13.10;99.90
30206;DHT22;17010;51.306;3.150;2023-04-08T09:44:18;13.10;99.90
30206;DHT22;17010;51.306;3.150;2023-04-08T09:49:37;12.80;99.90
30206;DHT22;17010;51.306;3.150;2023-04-08T09:52:23;12.40;99.90
30206;DHT22;17010;51.306;3.150;2023-04-08T09:55:03;12.20;99.90
30206;DHT22;17010;51.306;3.150;2023-04-08T10:00:11;12.10;99.90
30206;DHT22;17010;51.306;3.150;2023-04-08T10:03:17;11.90;99.90
30206;DHT22;17010;51.306;3.150;2023-04-08T10:05:48;11.70;99.90
30206;DHT22;17010;51.306;3.150;2023-04-08T10:08:15;11.60;99.90
30206;DHT22;17010;51.306;3.150;2023-04-08T10:10:41;11.40;99.90
30206;DHT22;17010;51.306;3.150;2023-04-08T10:13:08;11.30;99.90
30206;DHT22;17010;51.306;3.150;2023-04-08T10:15:35;11.20;99.90
30206;DHT22;17010;51.306;3.150;2023-04-08T10:23:14;11.00;99.90
30206;DHT22;17010;51.306;3.150;2023-04-08T10:25:45;11.00;99.90
30206;DHT22;17010;51.306;3.150;2023-04-08T10:30:46;11.30;99.90
30206;DHT22;17010;51.306;3.150;2023-04-08T10:33:15;11.30;99.90
30206;DHT22;17010;51.306;3.150;2023-04-08T10:35:43;11.40;99.90
30206;DHT22;17010;51.306;3.150;2023-04-08T10:38:13;11.50;99.90
30206;DHT22;17010;51.306;3.150;2023-04-08T10:40:40;11.50;99.90
30206;DHT22;17010;51.306;3.150;2023-04-08T10:43:08;11.30;99.90
30206;DHT22;17010;51.306;3.150;2023-04-08T10:45:36;11.30;99.90
30206;DHT22;17010;51.306;3.150;2023-04-08T10:48:22;11.30;99.90
30206;DHT22;17010;51.306;3.150;2023-04-08T10:50:57;11.40;99.90
30206;DHT22;17010;51.306;3.150;2023-04-08T10:53:40;11.40;99.90
30206;DHT22;17010;51.306;3.150;2023-04-08T10:56:11;11.70;99.90
30206;DHT22;17010;51.306;3.150;2023-04-08T10:58:50;11.70;99.90
30206;DHT22;17010;51.306;3.150;2023-04-08T11:01:18;11.80;99.90
30206;DHT22;17010;51.306;3.150;2023-04-08T11:03:44;11.90;99.90
30206;DHT22;17010;51.306;3.150;2023-04-08T11:06:11;11.80;99.90
30206;DHT22;17010;51.306;3.150;2023-04-08T11:08:39;12.00;99.90
30206;DHT22;17010;51.306;3.150;2023-04-08T11:11:06;12.10;99.90
30206;DHT22;17010;51.306;3.150;2023-04-08T11:13:38;12.00;99.90
30206;DHT22;17010;51.306;3.150;2023-04-08T11:16:06;11.80;99.90
30206;DHT22;17010;51.306;3.150;2023-04-08T11:18:39;11.80;99.90
30206;DHT22;17010;51.306;3.150;2023-04-08T11:21:09;11.80;99.90
30206;DHT22;17010;51.306;3.150;2023-04-08T11:23:40;11.90;99.90
30206;DHT22;17010;51.306;3.150;2023-04-08T11:26:07;12.00;99.90
30206;DHT22;17010;51.306;3.150;2023-04-08T11:28:34;12.10;99.90
30206;DHT22;17010;51.306;3.150;2023-04-08T11:31:00;12.20;99.90
30206;DHT22;17010;51.306;3.150;2023-04-08T11:33:33;12.10;99.90
30206;DHT22;17010;51.306;3.150;2023-04-08T11:36:01;12.20;99.90
30206;DHT22;17010;51.306;3.150;2023-04-08T11:38:29;12.20;99.90
30206;DHT22;17010;51.306;3.150;2023-04-08T11:40:57;12.50;99.90
30206;DHT22;17010;51.306;3.150;2023-04-08T11:43:26;12.40;99.90
30206;DHT22;17010;51.306;3.150;2023-04-08T11:45:53;12.40;99.90
30206;DHT22;17010;51.306;3.150;2023-04-08T11:51:10;12.60;99.90
30206;DHT22;17010;51.306;3.150;2023-04-08T11:53:43;12.60;99.90
30206;DHT22;17010;51.306;3.150;2023-04-08T11:56:26;12.70;99.90
30206;DHT22;17010;51.306;3.150;2023-04-08T11:58:55;12.80;99.90
30206;DHT22;17010;51.306;3.150;2023-04-08T12:01:24;12.90;99.90
30206;DHT22;17010;51.306;3.150;2023-04-08T12:03:59;13.10;99.90
30206;DHT22;17010;51.306;3.150;2023-04-08T12:06:27;13.20;99.90
30206;DHT22;17010;51.306;3.150;2023-04-08T12:08:54;13.30;99.90
30206;DHT22;17010;51.306;3.150;2023-04-08T12:11:22;13.20;99.90
30206;DHT22;17010;51.306;3.150;2023-04-08T12:13:48;13.10;99.90
30206;DHT22;17010;51.306;3.150;2023-04-08T12:16:16;13.00;99.90
30206;DHT22;17010;51.306;3.150;2023-04-08T12:18:42;13.20;99.90
30206;DHT22;17010;51.306;3.150;2023-04-08T12:21:09;12.90;99.90
30206;DHT22;17010;51.306;3.150;2023-04-08T12:23:35;12.90;99.90
30206;DHT22;17010;51.306;3.150;2023-04-08T12:26:02;12.90;99.90
30206;DHT22;17010;51.306;3.150;2023-04-08T12:28:29;13.20;99.90
30206;DHT22;17010;51.306;3.150;2023-04-08T12:30:56;13.20;99.90
30206;DHT22;17010;51.306;3.150;2023-04-08T12:33:23;13.20;99.90
30206;DHT22;17010;51.306;3.150;2023-04-08T12:35:49;13.10;99.90
30206;DHT22;17010;51.306;3.150;2023-04-08T12:38:16;13.10;99.90
30206;DHT22;17010;51.306;3.150;2023-04-08T12:40:42;13.00;99.90
30206;DHT22;17010;51.306;3.150;2023-04-08T12:43:09;13.10;99.90
30206;DHT22;17010;51.306;3.150;2023-04-08T12:45:35;13.30;99.90
30206;DHT22;17010;51.306;3.150;2023-04-08T12:48:02;13.30;99.90
30206;DHT22;17010;51.306;3.150;2023-04-08T12:50:28;13.20;99.90
30206;DHT22;17010;51.306;3.150;2023-04-08T12:52:55;13.20;99.90
30206;DHT22;17010;51.306;3.150;2023-04-08T12:55:21;13.40;99.90
30206;DHT22;17010;51.306;3.150;2023-04-08T12:57:50;13.20;99.90
30206;DHT22;17010;51.306;3.150;2023-04-08T13:00:17;13.30;99.90
30206;DHT22;17010;51.306;3.150;2023-04-08T13:02:44;13.20;99.90
30206;DHT22;17010;51.306;3.150;2023-04-08T13:05:11;12.80;99.90
30206;DHT22;17010;51.306;3.150;2023-04-08T13:07:37;12.40;99.90
30206;DHT22;17010;51.306;3.150;2023-04-08T13:10:04;12.50;99.90
30206;DHT22;17010;51.306;3.150;2023-04-08T13:12:32;12.40;99.90
30206;DHT22;17010;51.306;3.150;2023-04-08T13:14:59;12.40;99.90
30206;DHT22;17010;51.306;3.150;2023-04-08T13:17:26;12.40;99.90
30206;DHT22;17010;51.306;3.150;2023-04-08T13:19:53;12.50;99.90
30206;DHT22;17010;51.306;3.150;2023-04-08T13:22:19;12.30;99.90
30206;DHT22;17010;51.306;3.150;2023-04-08T13:24:46;12.40;99.90
30206;DHT22;17010;51.306;3.150;2023-04-08T13:27:12;12.40;99.90
30206;DHT22;17010;51.306;3.150;2023-04-08T13:29:39;12.50;99.90
30206;DHT22;17010;51.306;3.150;2023-04-08T13:32:06;12.40;99.90
30206;DHT22;17010;51.306;3.150;2023-04-08T13:34:32;12.30;99.90
30206;DHT22;17010;51.306;3.150;2023-04-08T13:36:58;12.00;99.90
30206;DHT22;17010;51.306;3.150;2023-04-08T13:39:28;11.80;99.90
30206;DHT22;17010;51.306;3.150;2023-04-08T13:41:54;11.80;99.90
30206;DHT22;17010;51.306;3.150;2023-04-08T13:44:22;11.80;99.90
30206;DHT22;17010;51.306;3.150;2023-04-08T13:46:51;11.90;99.90
30206;DHT22;17010;51.306;3.150;2023-04-08T13:49:17;11.90;99.90
30206;DHT22;17010;51.306;3.150;2023-04-08T13:51:44;11.80;99.90
30206;DHT22;17010;51.306;3.150;2023-04-08T13:54:10;11.70;99.90
30206;DHT22;17010;51.306;3.150;2023-04-08T13:56:37;11.70;99.90
30206;DHT22;17010;51.306;3.150;2023-04-08T13:59:03;11.70;99.90
30206;DHT22;17010;51.306;3.150;2023-04-08T14:01:30;11.70;99.90
30206;DHT22;17010;51.306;3.150;2023-04-08T14:03:57;11.80;99.90
30206;DHT22;17010;51.306;3.150;2023-04-08T14:06:23;11.80;99.90
30206;DHT22;17010;51.306;3.150;2023-04-08T14:08:50;12.00;99.90
30206;DHT22;17010;51.306;3.150;2023-04-08T14:11:16;12.10;99.90
30206;DHT22;17010;51.306;3.150;2023-04-08T14:13:46;12.20;99.90
30206;DHT22;17010;51.306;3.150;2023-04-08T14:16:12;12.20;99.90
30206;DHT22;17010;51.306;3.150;2023-04-08T14:18:39;12.10;99.90
30206;DHT22;17010;51.306;3.150;2023-04-08T14:21:05;12.10;99.90
30206;DHT22;17010;51.306;3.150;2023-04-08T14:23:32;12.20;99.90
30206;DHT22;17010;51.306;3.150;2023-04-08T14:25:59;12.30;99.90
30206;DHT22;17010;51.306;3.150;2023-04-08T14:28:26;12.60;99.90
30206;DHT22;17010;51.306;3.150;2023-04-08T14:30:52;12.60;99.90
30206;DHT22;17010;51.306;3.150;2023-04-08T14:33:19;12.70;99.90
30206;DHT22;17010;51.306;3.150;2023-04-08T14:35:45;12.50;99.90
30206;DHT22;17010;51.306;3.150;2023-04-08T14:38:12;12.30;99.90
30206;DHT22;17010;51.306;3.150;2023-04-08T14:40:38;12.10;99.90
30206;DHT22;17010;51.306;3.150;2023-04-08T14:43:05;12.10;99.90
30206;DHT22;17010;51.306;3.150;2023-04-08T14:45:32;12.00;99.90
30206;DHT22;17010;51.306;3.150;2023-04-08T14:47:58;11.90;99.90
30206;DHT22;17010;51.306;3.150;2023-04-08T14:50:24;11.80;99.90
30206;DHT22;17010;51.306;3.150;2023-04-08T14:52:51;11.60;99.90
30206;DHT22;17010;51.306;3.150;2023-04-08T14:55:17;11.50;99.90
30206;DHT22;17010;51.306;3.150;2023-04-08T14:57:44;11.50;99.90
30206;DHT22;17010;51.306;3.150;2023-04-08T15:00:13;11.50;99.90
30206;DHT22;17010;51.306;3.150;2023-04-08T15:02:39;11.60;99.90
30206;DHT22;17010;51.306;3.150;2023-04-08T15:05:06;11.50;99.90
30206;DHT22;17010;51.306;3.150;2023-04-08T15:07:33;11.50;99.90
30206;DHT22;17010;51.306;3.150;2023-04-08T15:09:59;11.60;99.90
30206;DHT22;17010;51.306;3.150;2023-04-08T15:12:25;11.60;99.90
30206;DHT22;17010;51.306;3.150;2023-04-08T15:14:52;11.50;99.90
30206;DHT22;17010;51.306;3.150;2023-04-08T15:17:18;11.30;99.90
30206;DHT22;17010;51.306;3.150;2023-04-08T15:19:44;11.30;99.90
30206;DHT22;17010;51.306;3.150;2023-04-08T15:22:11;11.40;99.90
30206;DHT22;17010;51.306;3.150;2023-04-08T15:24:37;11.40;99.90
30206;DHT22;17010;51.306;3.150;2023-04-08T15:27:04;11.50;99.90
30206;DHT22;17010;51.306;3.150;2023-04-08T15:29:30;11.60;99.90
30206;DHT22;17010;51.306;3.150;2023-04-08T15:31:57;11.60;99.90
30206;DHT22;17010;51.306;3.150;2023-04-08T15:34:23;11.50;99.90
30206;DHT22;17010;51.306;3.150;2023-04-08T15:36:49;11.50;99.90
30206;DHT22;17010;51.306;3.150;2023-04-08T15:39:16;11.40;99.90
30206;DHT22;17010;51.306;3.150;2023-04-08T15:41:42;11.40;99.90
30206;DHT22;17010;51.306;3.150;2023-04-08T15:44:08;11.40;99.90
30206;DHT22;17010;51.306;3.150;2023-04-08T15:46:34;11.40;99.90
30206;DHT22;17010;51.306;3.150;2023-04-08T15:49:01;11.30;99.90
30206;DHT22;17010;51.306;3.150;2023-04-08T15:51:27;11.20;99.90
30206;DHT22;17010;51.306;3.150;2023-04-08T15:53:54;11.10;99.90
30206;DHT22;17010;51.306;3.150;2023-04-08T15:56:21;11.10;99.90
30206;DHT22;17010;51.306;3.150;2023-04-08T15:58:47;11.10;99.90
30206;DHT22;17010;51.306;3.150;2023-04-08T16:01:13;11.10;99.90
30206;DHT22;17010;51.306;3.150;2023-04-08T16:03:41;11.00;99.90
30206;DHT22;17010;51.306;3.150;2023-04-08T16:06:08;11.00;99.90